TAF Text Data
IDs:
Format:
Raw Decoded Include METAR

Data at: 0527 UTC 30 Jun 2022

KTLH 292340Z 3000/3024 04003KT P6SM VCTS BKN030CB BKN100
  TEMPO 3000/3001 VRB05G15KT 6SM -TSRA
  FM300300 VRB03KT P6SM FEW250
  FM301500 08006KT P6SM SCT050 SCT250
  FM301800 10006KT 6SM SHRA VCTS BKN050CB
  PROB30 3018/3024 VRB05G15KT 4SM TSRA